createdAt,value
2018-08-09T00:00:40.917Z,19.66
2018-08-09T00:01:40.926Z,19.61
2018-08-09T00:02:40.890Z,19.61
2018-08-09T00:03:40.875Z,19.76
2018-08-09T00:04:40.864Z,19.61
2018-08-09T00:05:40.887Z,19.73
2018-08-09T00:06:40.837Z,19.80
2018-08-09T00:07:40.820Z,19.94
2018-08-09T00:08:40.810Z,19.96
2018-08-09T00:09:40.792Z,19.95
2018-08-09T00:10:40.778Z,20.01
2018-08-09T00:11:40.767Z,20.13
2018-08-09T00:12:40.749Z,20.01
2018-08-09T00:13:40.733Z,20.05
2018-08-09T00:14:40.730Z,20.20
2018-08-09T00:15:40.710Z,20.20
2018-08-09T00:16:40.690Z,20.16
2018-08-09T00:17:40.677Z,20.11
2018-08-09T00:18:40.667Z,19.95
2018-08-09T00:19:40.655Z,19.71
2018-08-09T00:20:40.631Z,19.68
2018-08-09T00:21:40.618Z,19.65
2018-08-09T00:22:40.605Z,19.68
2018-08-09T00:23:40.602Z,19.61
2018-08-09T00:24:40.575Z,19.44
2018-08-09T00:25:40.561Z,19.48
2018-08-09T00:26:40.559Z,19.31
2018-08-09T00:27:40.542Z,19.36
2018-08-09T00:28:40.524Z,19.41
2018-08-09T00:29:40.504Z,19.46
2018-08-09T00:30:40.503Z,19.43
2018-08-09T00:31:40.476Z,19.55
2018-08-09T00:32:40.463Z,19.54
2018-08-09T00:33:40.447Z,19.61
2018-08-09T00:34:40.434Z,19.66
2018-08-09T00:35:40.419Z,19.63
2018-08-09T00:36:40.412Z,19.69
2018-08-09T00:37:40.392Z,19.77
2018-08-09T00:38:40.378Z,19.73
2018-08-09T00:39:40.362Z,19.56
2018-08-09T00:40:40.348Z,19.59
2018-08-09T00:41:40.334Z,19.55
2018-08-09T00:42:40.323Z,19.48
2018-08-09T00:43:40.311Z,19.31
2018-08-09T00:44:40.289Z,19.25
2018-08-09T00:45:40.276Z,19.22
2018-08-09T00:46:40.262Z,19.32
2018-08-09T00:47:40.247Z,19.22
2018-08-09T00:48:40.232Z,19.19
2018-08-09T00:49:40.217Z,19.31
2018-08-09T00:50:40.208Z,19.26
2018-08-09T00:51:40.189Z,19.37
2018-08-09T00:52:40.175Z,19.36
2018-08-09T00:53:40.159Z,19.37
2018-08-09T00:54:40.146Z,19.43
2018-08-09T00:55:40.130Z,19.47
2018-08-09T00:56:40.117Z,19.51
2018-08-09T00:57:40.104Z,19.48
2018-08-09T00:58:40.095Z,19.62
2018-08-09T00:59:40.077Z,19.56
2018-08-09T01:00:40.060Z,19.69
2018-08-09T01:01:40.045Z,19.66
2018-08-09T01:02:40.032Z,19.68
2018-08-09T01:03:40.020Z,19.59
2018-08-09T01:04:40.001Z,19.66
2018-08-09T01:05:39.998Z,19.71
2018-08-09T01:06:39.974Z,19.63
2018-08-09T01:07:39.971Z,19.54
2018-08-09T01:08:39.944Z,19.44
2018-08-09T01:09:39.930Z,19.48
2018-08-09T01:10:39.923Z,19.50
2018-08-09T01:11:39.902Z,19.59
2018-08-09T01:12:39.890Z,19.63
2018-08-09T01:13:39.875Z,19.61
2018-08-09T01:14:39.862Z,19.71
2018-08-09T01:15:39.845Z,19.71
2018-08-09T01:16:39.829Z,19.73
2018-08-09T01:17:39.819Z,19.69
2018-08-09T01:18:39.801Z,19.76
2018-08-09T01:19:39.789Z,19.86
2018-08-09T01:20:39.773Z,19.88
2018-08-09T01:21:39.759Z,19.96
2018-08-09T01:22:39.747Z,19.95
2018-08-09T01:23:39.730Z,19.96
2018-08-09T01:24:39.716Z,19.96
2018-08-09T01:25:39.701Z,19.92
2018-08-09T01:26:39.688Z,20.10
2018-08-09T01:27:39.673Z,20.11
2018-08-09T01:28:39.658Z,20.05
2018-08-09T01:29:39.644Z,20.13
2018-08-09T01:30:39.630Z,20.01
2018-08-09T01:31:39.619Z,19.99
2018-08-09T01:32:39.603Z,20.08
2018-08-09T01:33:39.587Z,20.10
2018-08-09T01:34:39.573Z,19.98
2018-08-09T01:35:39.560Z,20.01
2018-08-09T01:36:39.544Z,19.96
2018-08-09T01:37:39.554Z,19.96
2018-08-09T01:38:39.528Z,19.94
2018-08-09T01:39:39.501Z,19.91
2018-08-09T01:40:39.488Z,19.96
2018-08-09T01:41:39.471Z,19.77
2018-08-09T01:42:39.458Z,19.69
2018-08-09T01:43:39.443Z,19.66
2018-08-09T01:44:39.435Z,19.63
2018-08-09T01:45:39.413Z,19.48
2018-08-09T01:46:39.399Z,19.40
2018-08-09T01:47:39.389Z,19.55
2018-08-09T01:48:39.370Z,19.46
2018-08-09T01:49:39.355Z,19.56
2018-08-09T01:50:39.347Z,19.51
2018-08-09T01:51:39.327Z,19.56
2018-08-09T01:52:39.313Z,19.58
2018-08-09T01:53:39.303Z,19.65
2018-08-09T01:54:39.289Z,19.65
2018-08-09T01:55:39.270Z,19.62
2018-08-09T01:56:39.256Z,19.66
2018-08-09T01:57:39.241Z,19.62
2018-08-09T01:58:39.232Z,19.66
2018-08-09T01:59:39.215Z,19.58
2018-08-09T02:00:39.200Z,19.58
2018-08-09T02:01:39.184Z,19.54
2018-08-09T02:02:39.172Z,19.58
2018-08-09T02:03:39.158Z,19.54
2018-08-09T02:04:39.207Z,19.50
2018-08-09T02:05:39.128Z,19.26
2018-08-09T02:06:39.111Z,19.25
2018-08-09T02:07:39.099Z,19.14
2018-08-09T02:08:39.082Z,18.99
2018-08-09T02:09:39.072Z,19.10
2018-08-09T02:10:39.053Z,18.95
2018-08-09T02:11:39.039Z,18.99
2018-08-09T02:12:39.023Z,19.00
2018-08-09T02:13:39.008Z,18.98
2018-08-09T02:14:38.995Z,18.98
2018-08-09T02:15:38.982Z,18.99
2018-08-09T02:16:38.966Z,18.99
2018-08-09T02:17:38.954Z,19.07
2018-08-09T02:18:38.938Z,19.18
2018-08-09T02:19:38.921Z,19.23
2018-08-09T02:20:38.907Z,19.29
2018-08-09T02:21:38.891Z,19.25
2018-08-09T02:22:38.877Z,19.40
2018-08-09T02:23:38.875Z,19.43
2018-08-09T02:24:38.854Z,19.40
2018-08-09T02:25:38.834Z,19.39
2018-08-09T02:26:38.819Z,19.26
2018-08-09T02:27:38.807Z,19.19
2018-08-09T02:28:38.791Z,19.26
2018-08-09T02:29:38.778Z,19.25
2018-08-09T02:30:38.762Z,19.25
2018-08-09T02:31:38.749Z,19.26
2018-08-09T02:32:38.742Z,19.22
2018-08-09T02:33:38.718Z,19.19
2018-08-09T02:34:38.704Z,19.18
2018-08-09T02:35:38.690Z,19.07
2018-08-09T02:36:38.674Z,19.07
2018-08-09T02:37:38.662Z,19.08
2018-08-09T02:38:38.646Z,19.11
2018-08-09T02:39:38.633Z,19.18
2018-08-09T02:40:38.617Z,19.21
2018-08-09T02:41:38.603Z,19.14
2018-08-09T02:42:38.591Z,18.99
2018-08-09T02:43:38.580Z,18.81
2018-08-09T02:44:38.570Z,18.54
2018-08-09T02:45:38.544Z,18.29
2018-08-09T02:46:38.572Z,18.18
2018-08-09T02:47:38.516Z,18.12
2018-08-09T02:48:38.499Z,18.02
2018-08-09T02:49:38.492Z,18.12
2018-08-09T02:50:38.473Z,18.07
2018-08-09T02:51:38.457Z,18.14
2018-08-09T02:52:38.442Z,18.14
2018-08-09T02:53:38.428Z,18.21
2018-08-09T02:54:38.415Z,18.23
2018-08-09T02:55:38.398Z,18.30
2018-08-09T02:56:38.384Z,18.27
2018-08-09T02:57:38.388Z,18.37
2018-08-09T02:58:38.354Z,18.41
2018-08-09T02:59:38.344Z,18.44
2018-08-09T03:00:38.324Z,18.63
2018-08-09T03:01:38.309Z,18.63
2018-08-09T03:02:38.293Z,18.70
2018-08-09T03:03:38.280Z,18.75
2018-08-09T03:04:38.264Z,18.84
2018-08-09T03:05:38.249Z,18.91
2018-08-09T03:06:38.234Z,18.91
2018-08-09T03:07:38.220Z,18.90
2018-08-09T03:08:38.206Z,18.99
2018-08-09T03:09:38.195Z,19.07
2018-08-09T03:10:38.179Z,19.16
2018-08-09T03:11:38.161Z,19.06
2018-08-09T03:12:38.151Z,19.10
2018-08-09T03:13:38.133Z,19.10
2018-08-09T03:14:38.116Z,19.04
2018-08-09T03:15:38.104Z,19.07
2018-08-09T03:16:38.086Z,19.06
2018-08-09T03:17:38.072Z,19.02
2018-08-09T03:18:38.059Z,19.02
2018-08-09T03:19:38.045Z,19.02
2018-08-09T03:20:38.029Z,18.90
2018-08-09T03:21:38.014Z,18.91
2018-08-09T03:22:37.998Z,18.85
2018-08-09T03:23:37.990Z,18.76
2018-08-09T03:24:37.969Z,18.76
2018-08-09T03:25:37.955Z,18.67
2018-08-09T03:26:37.943Z,18.54
2018-08-09T03:27:37.924Z,18.66
2018-08-09T03:28:37.909Z,18.62
2018-08-09T03:29:37.895Z,18.73
2018-08-09T03:30:37.887Z,18.67
2018-08-09T03:31:37.866Z,18.75
2018-08-09T03:32:37.849Z,18.80
2018-08-09T03:33:37.839Z,18.81
2018-08-09T03:34:37.820Z,18.84
2018-08-09T03:35:37.805Z,18.75
2018-08-09T03:36:37.790Z,18.84
2018-08-09T03:37:37.779Z,18.82
2018-08-09T03:38:37.765Z,18.84
2018-08-09T03:39:37.746Z,18.92
2018-08-09T03:40:37.732Z,18.87
2018-08-09T03:41:37.718Z,18.87
2018-08-09T03:42:37.702Z,18.88
2018-08-09T03:43:37.686Z,18.98
2018-08-09T03:44:37.675Z,18.95
2018-08-09T03:45:37.658Z,19.00
2018-08-09T03:46:37.642Z,19.06
2018-08-09T03:47:37.626Z,19.13
2018-08-09T03:48:37.613Z,19.02
2018-08-09T03:49:37.597Z,18.75
2018-08-09T03:50:37.581Z,18.62
2018-08-09T03:51:37.571Z,18.35
2018-08-09T03:52:37.552Z,18.26
2018-08-09T03:53:37.539Z,18.20
2018-08-09T03:54:37.523Z,18.05
2018-08-09T03:55:37.512Z,18.11
2018-08-09T03:56:37.494Z,18.14
2018-08-09T03:57:37.478Z,18.11
2018-08-09T03:58:37.466Z,18.23
2018-08-09T03:59:37.502Z,18.29
2018-08-09T04:00:37.438Z,18.35
2018-08-09T04:01:37.428Z,18.45
2018-08-09T04:02:37.405Z,18.45
2018-08-09T04:03:37.389Z,18.54
2018-08-09T04:04:37.376Z,18.55
2018-08-09T04:05:37.366Z,18.65
2018-08-09T04:06:37.348Z,18.58
2018-08-09T04:07:37.331Z,18.50
2018-08-09T04:08:37.322Z,18.17
2018-08-09T04:09:37.302Z,18.11
2018-08-09T04:10:37.285Z,17.99
2018-08-09T04:11:37.278Z,17.90
2018-08-09T04:12:37.258Z,17.86
2018-08-09T04:13:37.239Z,17.99
2018-08-09T04:14:37.232Z,17.95
2018-08-09T04:15:37.212Z,18.07
2018-08-09T04:16:37.197Z,18.10
2018-08-09T04:17:37.178Z,18.15
2018-08-09T04:18:37.167Z,18.26
2018-08-09T04:19:37.153Z,18.30
2018-08-09T04:20:37.135Z,18.37
2018-08-09T04:21:37.121Z,18.44
2018-08-09T04:22:37.110Z,18.51
2018-08-09T04:23:37.089Z,18.55
2018-08-09T04:24:37.074Z,18.52
2018-08-09T04:25:37.060Z,18.51
2018-08-09T04:26:37.108Z,18.54
2018-08-09T04:27:37.034Z,18.44
2018-08-09T04:28:37.014Z,18.44
2018-08-09T04:29:37.004Z,18.29
2018-08-09T04:30:36.987Z,18.17
2018-08-09T04:31:36.973Z,18.08
2018-08-09T04:32:36.953Z,18.12
2018-08-09T04:33:36.938Z,18.12
2018-08-09T04:34:36.929Z,18.05
2018-08-09T04:35:36.911Z,18.10
2018-08-09T04:36:36.894Z,18.07
2018-08-09T04:37:36.879Z,18.15
2018-08-09T04:38:36.867Z,18.10
2018-08-09T04:39:36.850Z,18.17
2018-08-09T04:40:36.834Z,18.20
2018-08-09T04:41:36.818Z,18.29
2018-08-09T04:42:36.806Z,18.29
2018-08-09T04:43:36.790Z,18.33
2018-08-09T04:44:36.774Z,18.36
2018-08-09T04:45:36.763Z,18.45
2018-08-09T04:46:36.744Z,18.44
2018-08-09T04:47:36.728Z,18.57
2018-08-09T04:48:36.713Z,18.63
2018-08-09T04:49:36.698Z,18.65
2018-08-09T04:50:36.684Z,18.72
2018-08-09T04:51:36.673Z,18.81
2018-08-09T04:52:36.654Z,18.78
2018-08-09T04:53:36.639Z,18.82
2018-08-09T04:54:36.624Z,18.88
2018-08-09T04:55:36.609Z,18.92
2018-08-09T04:56:36.598Z,18.98
2018-08-09T04:57:36.579Z,19.10
2018-08-09T04:58:36.564Z,19.08
2018-08-09T04:59:36.548Z,19.18
2018-08-09T05:00:36.532Z,19.18
2018-08-09T05:01:36.524Z,19.16
2018-08-09T05:02:36.507Z,19.16
2018-08-09T05:03:36.490Z,19.14
2018-08-09T05:04:36.475Z,19.07
2018-08-09T05:05:36.459Z,19.08
2018-08-09T05:06:36.446Z,19.14
2018-08-09T05:07:36.431Z,19.19
2018-08-09T05:08:36.414Z,19.19
2018-08-09T05:09:36.402Z,19.18
2018-08-09T05:10:36.388Z,19.08
2018-08-09T05:11:36.373Z,19.02
2018-08-09T05:12:36.360Z,18.92
2018-08-09T05:13:36.340Z,18.85
2018-08-09T05:14:36.327Z,18.75
2018-08-09T05:15:36.312Z,18.65
2018-08-09T05:16:36.297Z,18.57
2018-08-09T05:17:36.281Z,18.57
2018-08-09T05:18:36.269Z,18.54
2018-08-09T05:19:36.253Z,18.58
2018-08-09T05:20:36.239Z,18.69
2018-08-09T05:21:36.224Z,18.69
2018-08-09T05:22:36.209Z,18.69
2018-08-09T05:23:36.200Z,18.67
2018-08-09T05:24:36.179Z,18.75
2018-08-09T05:25:36.163Z,18.82
2018-08-09T05:26:36.149Z,18.91
2018-08-09T05:27:36.134Z,18.84
2018-08-09T05:28:36.121Z,19.04
2018-08-09T05:29:36.105Z,19.02
2018-08-09T05:30:36.090Z,19.00
2018-08-09T05:31:36.077Z,19.11
2018-08-09T05:32:36.060Z,19.21
2018-08-09T05:33:36.047Z,19.25
2018-08-09T05:34:36.031Z,19.26
2018-08-09T05:35:36.017Z,19.18
2018-08-09T05:36:36.010Z,19.22
2018-08-09T05:37:35.986Z,19.23
2018-08-09T05:38:35.971Z,19.29
2018-08-09T05:39:35.958Z,19.31
2018-08-09T05:40:35.943Z,19.28
2018-08-09T05:41:35.926Z,19.39
2018-08-09T05:42:35.914Z,19.43
2018-08-09T05:43:35.898Z,19.55
2018-08-09T05:44:35.882Z,19.56
2018-08-09T05:45:35.874Z,19.63
2018-08-09T05:46:35.858Z,19.58
2018-08-09T05:47:35.847Z,19.55
2018-08-09T05:48:35.827Z,19.63
2018-08-09T05:49:35.813Z,19.66
2018-08-09T05:50:35.793Z,19.71
2018-08-09T05:51:35.778Z,19.63
2018-08-09T05:52:35.804Z,19.77
2018-08-09T05:53:35.751Z,19.80
2018-08-09T05:54:35.735Z,19.83
2018-08-09T05:55:35.718Z,19.86
2018-08-09T05:56:35.705Z,19.95
2018-08-09T05:57:35.690Z,19.96
2018-08-09T05:58:35.728Z,19.95
2018-08-09T05:59:35.671Z,19.92
2018-08-09T06:00:35.647Z,20.10
2018-08-09T06:01:35.636Z,20.06
2018-08-09T06:02:35.621Z,19.94
2018-08-09T06:03:35.605Z,19.98
2018-08-09T06:04:35.594Z,19.92
2018-08-09T06:05:35.584Z,19.88
2018-08-09T06:06:35.560Z,19.80
2018-08-09T06:07:35.549Z,19.87
2018-08-09T06:08:35.532Z,19.94
2018-08-09T06:09:35.516Z,19.96
2018-08-09T06:10:35.503Z,19.88
2018-08-09T06:11:35.486Z,19.96
2018-08-09T06:12:35.471Z,19.94
2018-08-09T06:13:35.555Z,19.98
2018-08-09T06:14:35.445Z,20.01
2018-08-09T06:15:35.432Z,20.08
2018-08-09T06:16:35.414Z,20.11
2018-08-09T06:17:35.401Z,20.02
2018-08-09T06:18:35.388Z,20.16
2018-08-09T06:19:35.371Z,20.10
2018-08-09T06:20:35.357Z,20.20
2018-08-09T06:21:35.340Z,20.01
2018-08-09T06:22:35.329Z,20.02
2018-08-09T06:23:35.316Z,20.08
2018-08-09T06:24:35.299Z,20.01
2018-08-09T06:25:35.287Z,20.08
2018-08-09T06:26:35.273Z,19.94
2018-08-09T06:27:35.256Z,19.91
2018-08-09T06:28:35.243Z,19.95
2018-08-09T06:29:35.230Z,20.06
2018-08-09T06:30:35.212Z,20.05
2018-08-09T06:31:35.202Z,20.06
2018-08-09T06:32:35.183Z,19.98
2018-08-09T06:33:35.258Z,19.96
2018-08-09T06:34:35.154Z,19.96
2018-08-09T06:35:35.142Z,19.98
2018-08-09T06:36:35.124Z,19.94
2018-08-09T06:37:35.111Z,19.98
2018-08-09T06:38:35.101Z,20.02
2018-08-09T06:39:35.083Z,20.02
2018-08-09T06:40:35.068Z,20.08
2018-08-09T06:41:35.054Z,20.01
2018-08-09T06:42:35.039Z,20.13
2018-08-09T06:43:35.025Z,20.16
2018-08-09T06:44:35.013Z,20.20
2018-08-09T06:45:34.994Z,20.13
2018-08-09T06:46:34.988Z,20.28
2018-08-09T06:47:34.991Z,20.21
2018-08-09T06:48:34.953Z,20.24
2018-08-09T06:49:34.943Z,20.23
2018-08-09T06:50:34.931Z,20.21
2018-08-09T06:51:34.911Z,20.23
2018-08-09T06:52:34.900Z,20.26
2018-08-09T06:53:34.879Z,20.20
2018-08-09T06:54:34.874Z,20.26
2018-08-09T06:55:34.852Z,20.26
2018-08-09T06:56:34.838Z,20.28
2018-08-09T06:57:34.825Z,20.35
2018-08-09T06:58:34.810Z,20.24
2018-08-09T06:59:34.797Z,20.31
2018-08-09T07:00:34.780Z,20.33
2018-08-09T07:01:34.766Z,20.33
2018-08-09T07:02:34.754Z,20.29
2018-08-09T07:03:34.744Z,20.32
2018-08-09T07:04:34.722Z,20.26
2018-08-09T07:05:34.719Z,20.32
2018-08-09T07:06:34.694Z,20.31
2018-08-09T07:07:34.684Z,20.32
2018-08-09T07:08:34.663Z,20.32
2018-08-09T07:09:34.651Z,20.32
2018-08-09T07:10:34.637Z,20.36
2018-08-09T07:11:34.634Z,20.33
2018-08-09T07:12:34.608Z,20.36
2018-08-09T07:13:34.593Z,20.33
2018-08-09T07:14:34.583Z,20.36
2018-08-09T07:15:34.567Z,20.32
2018-08-09T07:16:34.552Z,20.36
2018-08-09T07:17:34.538Z,20.48
2018-08-09T07:18:34.522Z,20.43
2018-08-09T07:19:34.505Z,20.48
2018-08-09T07:20:34.495Z,20.54
2018-08-09T07:21:34.480Z,20.51
2018-08-09T07:22:34.463Z,20.52
2018-08-09T07:23:34.449Z,20.38
2018-08-09T07:24:34.434Z,20.52
2018-08-09T07:25:34.423Z,20.51
2018-08-09T07:26:34.556Z,20.48
2018-08-09T07:27:34.390Z,20.58
2018-08-09T07:28:34.377Z,20.67
2018-08-09T07:29:34.364Z,20.64
2018-08-09T07:30:34.348Z,20.67
2018-08-09T07:31:34.338Z,20.79
2018-08-09T07:32:34.320Z,20.79
2018-08-09T07:33:34.311Z,20.84
2018-08-09T07:34:34.290Z,20.88
2018-08-09T07:35:34.283Z,20.79
2018-08-09T07:36:34.286Z,20.82
2018-08-09T07:37:34.258Z,20.82
2018-08-09T07:38:34.245Z,20.87
2018-08-09T07:39:34.308Z,20.84
2018-08-09T07:40:34.207Z,20.82
2018-08-09T07:41:34.192Z,20.87
2018-08-09T07:42:34.177Z,20.97
2018-08-09T07:43:34.162Z,21.10
2018-08-09T07:44:34.147Z,21.10
2018-08-09T07:45:34.137Z,21.10
2018-08-09T07:46:34.118Z,21.12
2018-08-09T07:47:34.106Z,21.24
2018-08-09T07:48:34.124Z,21.28
2018-08-09T07:49:34.088Z,21.34
2018-08-09T07:50:34.063Z,21.28
2018-08-09T07:51:34.053Z,21.25
2018-08-09T07:52:34.034Z,21.38
2018-08-09T07:53:34.019Z,21.37
2018-08-09T07:54:34.008Z,21.43
2018-08-09T07:55:34.001Z,21.40
2018-08-09T07:56:33.982Z,21.56
2018-08-09T07:57:33.964Z,21.61
2018-08-09T07:58:33.951Z,21.68
2018-08-09T07:59:33.937Z,21.58
2018-08-09T08:00:33.927Z,21.54
2018-08-09T08:01:33.920Z,21.56
2018-08-09T08:02:33.893Z,21.54
2018-08-09T08:03:33.886Z,21.54
2018-08-09T08:04:33.866Z,21.49
2018-08-09T08:05:33.855Z,21.54
2018-08-09T08:06:33.855Z,21.54
2018-08-09T08:07:33.832Z,21.58
2018-08-09T08:08:33.813Z,21.59
2018-08-09T08:09:33.802Z,21.56
2018-08-09T08:10:33.784Z,21.62
2018-08-09T08:11:33.777Z,21.61
2018-08-09T08:12:33.754Z,21.58
2018-08-09T08:13:33.753Z,21.62
2018-08-09T08:14:33.733Z,21.67
2018-08-09T08:15:33.717Z,21.69
2018-08-09T08:16:33.699Z,21.75
2018-08-09T08:17:33.686Z,21.69
2018-08-09T08:18:33.674Z,21.69
2018-08-09T08:19:33.660Z,21.65
2018-08-09T08:20:33.665Z,21.62
2018-08-09T08:21:33.631Z,21.65
2018-08-09T08:22:33.619Z,21.72
2018-08-09T08:23:33.603Z,21.74
2018-08-09T08:24:33.589Z,21.75
2018-08-09T08:25:33.576Z,21.94
2018-08-09T08:26:33.561Z,21.94
2018-08-09T08:27:33.555Z,21.96
2018-08-09T08:28:33.533Z,22.07
2018-08-09T08:29:33.525Z,22.14
2018-08-09T08:30:33.507Z,22.14
2018-08-09T08:31:33.497Z,22.17
2018-08-09T08:32:33.485Z,22.10
2018-08-09T08:33:33.462Z,22.25
2018-08-09T08:34:33.508Z,22.27
2018-08-09T08:35:33.442Z,22.45
2018-08-09T08:36:33.426Z,22.58
2018-08-09T08:37:33.412Z,22.72
2018-08-09T08:38:33.393Z,22.88
2018-08-09T08:39:33.384Z,22.98
2018-08-09T08:40:33.366Z,22.98
2018-08-09T08:41:33.430Z,23.02
2018-08-09T08:42:33.345Z,23.16
2018-08-09T08:43:33.327Z,23.02
2018-08-09T08:44:33.311Z,23.20
2018-08-09T08:45:33.325Z,23.33
2018-08-09T08:46:33.286Z,23.27
2018-08-09T08:47:33.333Z,23.38
2018-08-09T08:48:33.260Z,23.36
2018-08-09T08:49:33.260Z,23.43
2018-08-09T08:50:33.253Z,23.48
2018-08-09T08:51:33.224Z,23.35
2018-08-09T08:52:33.206Z,23.36
2018-08-09T08:53:33.200Z,23.40
2018-08-09T08:54:33.180Z,23.38
2018-08-09T08:55:33.170Z,23.17
2018-08-09T08:56:33.155Z,23.02
2018-08-09T08:57:33.142Z,23.12
2018-08-09T08:58:33.134Z,23.19
2018-08-09T08:59:33.116Z,23.20
2018-08-09T09:00:33.137Z,23.16
2018-08-09T09:01:33.089Z,23.15
2018-08-09T09:02:33.072Z,23.19
2018-08-09T09:03:33.063Z,23.20
2018-08-09T09:04:33.048Z,23.33
2018-08-09T09:05:33.036Z,23.38
2018-08-09T09:06:33.025Z,23.38
2018-08-09T09:07:33.008Z,23.35
2018-08-09T09:08:32.993Z,23.35
2018-08-09T09:09:32.986Z,23.35
2018-08-09T09:10:32.993Z,23.47
2018-08-09T09:11:32.959Z,23.68
2018-08-09T09:12:32.942Z,23.72
2018-08-09T09:13:32.929Z,23.80
2018-08-09T09:14:32.916Z,23.88
2018-08-09T09:15:32.902Z,24.00
2018-08-09T09:16:32.887Z,23.93
2018-08-09T09:17:32.874Z,23.88
2018-08-09T09:18:32.883Z,23.78
2018-08-09T09:19:32.850Z,23.65
2018-08-09T09:20:32.839Z,23.66
2018-08-09T09:21:32.825Z,23.69
2018-08-09T09:22:32.809Z,23.55
2018-08-09T09:23:32.796Z,23.65
2018-08-09T09:24:32.783Z,23.55
2018-08-09T09:25:32.776Z,23.58
2018-08-09T09:26:32.759Z,23.75
2018-08-09T09:27:32.745Z,23.70
2018-08-09T09:28:32.739Z,23.69
2018-08-09T09:29:32.717Z,23.69
2018-08-09T09:30:32.709Z,23.70
2018-08-09T09:31:32.696Z,23.76
2018-08-09T09:32:32.679Z,23.93
2018-08-09T09:33:32.666Z,23.95
2018-08-09T09:34:32.654Z,24.00
2018-08-09T09:35:32.641Z,24.16
2018-08-09T09:36:32.635Z,24.34
2018-08-09T09:37:32.620Z,24.27
2018-08-09T09:38:32.605Z,24.50
2018-08-09T09:39:32.590Z,24.58
2018-08-09T09:40:32.578Z,24.50
2018-08-09T09:41:32.571Z,24.57
2018-08-09T09:42:32.552Z,24.65
2018-08-09T09:43:32.535Z,24.78
2018-08-09T09:44:32.523Z,24.87
2018-08-09T09:45:32.519Z,25.00
2018-08-09T09:46:32.505Z,25.08
2018-08-09T09:47:32.490Z,25.13
2018-08-09T09:48:32.479Z,25.20
2018-08-09T09:49:32.466Z,25.25
2018-08-09T09:50:32.465Z,25.14
2018-08-09T09:51:32.440Z,25.27
2018-08-09T09:52:32.424Z,25.39
2018-08-09T09:53:32.419Z,25.42
2018-08-09T09:54:32.398Z,25.54
2018-08-09T09:55:32.387Z,25.60
2018-08-09T09:56:32.377Z,25.67
2018-08-09T09:57:32.371Z,25.80
2018-08-09T09:58:32.349Z,25.79
2018-08-09T09:59:32.346Z,25.64
2018-08-09T10:00:32.326Z,25.60
2018-08-09T10:01:32.313Z,25.61
2018-08-09T10:02:32.306Z,25.69
2018-08-09T10:03:32.291Z,25.65
2018-08-09T10:04:32.293Z,25.69
2018-08-09T10:05:32.265Z,25.67
2018-08-09T10:06:32.259Z,25.64
2018-08-09T10:07:32.245Z,25.65
2018-08-09T10:08:32.233Z,25.69
2018-08-09T10:09:32.219Z,25.62
2018-08-09T10:10:32.214Z,25.64
2018-08-09T10:11:32.198Z,25.57
2018-08-09T10:12:32.183Z,25.60
2018-08-09T10:13:32.170Z,25.51
2018-08-09T10:14:32.159Z,25.62
2018-08-09T10:15:32.146Z,25.67
2018-08-09T10:16:32.134Z,25.64
2018-08-09T10:17:32.121Z,25.61
2018-08-09T10:18:32.123Z,25.54
2018-08-09T10:19:32.098Z,25.52
2018-08-09T10:20:32.097Z,25.65
2018-08-09T10:21:32.086Z,25.60
2018-08-09T10:22:32.062Z,25.80
2018-08-09T10:23:32.056Z,25.70
2018-08-09T10:24:32.039Z,25.79
2018-08-09T10:25:32.026Z,25.85
2018-08-09T10:26:32.014Z,25.75
2018-08-09T10:27:32.002Z,25.79
2018-08-09T10:28:31.992Z,25.72
2018-08-09T10:29:31.980Z,25.75
2018-08-09T10:30:31.965Z,25.83
2018-08-09T10:31:31.959Z,25.79
2018-08-09T10:32:31.947Z,25.76
2018-08-09T10:33:31.942Z,25.73
2018-08-09T10:34:31.921Z,25.92
2018-08-09T10:35:31.926Z,25.88
2018-08-09T10:36:31.898Z,25.88
2018-08-09T10:37:31.884Z,26.09
2018-08-09T10:38:31.881Z,26.06
2018-08-09T10:39:31.869Z,26.09
2018-08-09T10:40:31.850Z,26.12
2018-08-09T10:41:31.840Z,26.20
2018-08-09T10:42:31.830Z,26.23
2018-08-09T10:43:31.817Z,26.30
2018-08-09T10:44:31.805Z,26.36
2018-08-09T10:45:31.792Z,26.44
2018-08-09T10:46:31.785Z,26.54
2018-08-09T10:47:31.776Z,26.60
2018-08-09T10:48:31.757Z,26.72
2018-08-09T10:49:31.763Z,26.89
2018-08-09T10:50:31.741Z,26.91
2018-08-09T10:51:31.724Z,27.03
2018-08-09T10:52:31.713Z,27.09
2018-08-09T10:53:31.701Z,27.09
2018-08-09T10:54:31.694Z,27.18
2018-08-09T10:55:31.680Z,27.22
2018-08-09T10:56:31.664Z,27.17
2018-08-09T10:57:31.662Z,27.12
2018-08-09T10:58:31.645Z,27.04
2018-08-09T10:59:31.632Z,27.14
2018-08-09T11:00:31.627Z,27.09
2018-08-09T11:01:31.610Z,27.06
2018-08-09T11:02:31.612Z,27.00
2018-08-09T11:03:31.590Z,26.89
2018-08-09T11:04:31.576Z,26.77
2018-08-09T11:05:31.566Z,26.76
2018-08-09T11:06:31.566Z,26.62
2018-08-09T11:07:31.544Z,26.67
2018-08-09T11:08:31.533Z,26.67
2018-08-09T11:09:31.523Z,26.67
2018-08-09T11:10:31.512Z,26.57
2018-08-09T11:11:31.503Z,26.63
2018-08-09T11:12:31.495Z,26.58
2018-08-09T11:13:31.486Z,26.62
2018-08-09T11:14:31.467Z,26.67
2018-08-09T11:15:31.455Z,26.80
2018-08-09T11:16:31.449Z,26.97
2018-08-09T11:17:31.439Z,26.87
2018-08-09T11:18:31.422Z,27.03
2018-08-09T11:19:31.409Z,27.04
2018-08-09T11:20:31.414Z,27.12
2018-08-09T11:21:31.390Z,27.19
2018-08-09T11:22:31.381Z,27.28
2018-08-09T11:23:31.367Z,27.37
2018-08-09T11:24:31.355Z,27.37
2018-08-09T11:25:31.345Z,27.46
2018-08-09T11:26:31.335Z,27.54
2018-08-09T11:27:31.327Z,27.66
2018-08-09T11:28:31.317Z,27.46
2018-08-09T11:29:31.302Z,27.55
2018-08-09T11:30:31.295Z,27.69
2018-08-09T11:31:31.290Z,27.69
2018-08-09T11:32:31.268Z,27.70
2018-08-09T11:33:31.274Z,27.69
2018-08-09T11:34:31.249Z,27.66
2018-08-09T11:35:31.238Z,27.74
2018-08-09T11:36:31.226Z,27.72
2018-08-09T11:37:31.219Z,27.72
2018-08-09T11:38:31.204Z,27.72
2018-08-09T11:39:31.194Z,27.70
2018-08-09T11:40:31.182Z,27.81
2018-08-09T11:41:31.173Z,27.75
2018-08-09T11:42:31.164Z,27.88
2018-08-09T11:43:31.150Z,27.74
2018-08-09T11:44:31.137Z,27.85
2018-08-09T11:45:31.130Z,27.88
2018-08-09T11:46:31.124Z,27.99
2018-08-09T11:47:31.115Z,27.93
2018-08-09T11:48:31.098Z,27.94
2018-08-09T11:49:31.087Z,27.93
2018-08-09T11:50:31.071Z,27.81
2018-08-09T11:51:31.062Z,27.78
2018-08-09T11:52:31.053Z,27.85
2018-08-09T11:53:31.040Z,27.84
2018-08-09T11:54:31.029Z,27.94
2018-08-09T11:55:31.020Z,27.81
2018-08-09T11:56:31.077Z,27.97
2018-08-09T11:57:31.004Z,28.09
2018-08-09T11:58:30.990Z,28.12
2018-08-09T11:59:30.982Z,28.24
2018-08-09T12:00:30.981Z,28.07
2018-08-09T12:01:31.002Z,28.15
2018-08-09T12:02:30.949Z,28.22
2018-08-09T12:03:30.934Z,28.39
2018-08-09T12:04:30.930Z,28.40
2018-08-09T12:05:30.918Z,28.52
2018-08-09T12:06:30.913Z,28.62
2018-08-09T12:07:30.895Z,28.64
2018-08-09T12:08:30.881Z,28.58
2018-08-09T12:09:30.961Z,28.58
2018-08-09T12:10:30.860Z,28.61
2018-08-09T12:11:30.853Z,28.62
2018-08-09T12:12:30.837Z,28.67
2018-08-09T12:13:30.881Z,28.71
2018-08-09T12:14:30.821Z,28.80
2018-08-09T12:15:30.809Z,28.83
2018-08-09T12:16:30.803Z,28.76
2018-08-09T12:17:30.783Z,28.77
2018-08-09T12:18:30.774Z,28.74
2018-08-09T12:19:30.777Z,28.71
2018-08-09T12:20:30.756Z,28.78
2018-08-09T12:21:30.743Z,28.80
2018-08-09T12:22:30.734Z,28.81
2018-08-09T12:23:30.719Z,28.90
2018-08-09T12:24:30.711Z,29.02
2018-08-09T12:25:30.707Z,28.90
2018-08-09T12:26:30.705Z,29.04
2018-08-09T12:27:30.681Z,29.02
2018-08-09T12:28:30.668Z,29.12
2018-08-09T12:29:30.661Z,29.16
2018-08-09T12:30:30.650Z,29.16
2018-08-09T12:31:30.640Z,29.21
2018-08-09T12:32:30.628Z,29.24
2018-08-09T12:33:30.616Z,29.37
2018-08-09T12:34:30.603Z,29.39
2018-08-09T12:35:30.595Z,29.30
2018-08-09T12:36:30.617Z,29.31
2018-08-09T12:37:30.575Z,29.19
2018-08-09T12:38:30.573Z,29.26
2018-08-09T12:39:30.554Z,29.23
2018-08-09T12:40:30.547Z,29.16
2018-08-09T12:41:30.535Z,29.14
2018-08-09T12:42:30.536Z,29.09
2018-08-09T12:43:30.511Z,28.95
2018-08-09T12:44:30.501Z,28.96
2018-08-09T12:45:30.522Z,28.86
2018-08-09T12:46:30.482Z,28.83
2018-08-09T12:47:30.470Z,28.83
2018-08-09T12:48:30.458Z,28.83
2018-08-09T12:49:30.448Z,28.89
2018-08-09T12:50:30.438Z,28.89
2018-08-09T12:51:30.431Z,28.81
2018-08-09T12:52:30.416Z,28.81